Time;durP1;ratioP1;P1;durP2;ratioP2;P2;SDS_P1;SDS_P2;PMS_P1;PMS_P2;Temp;Humidity;BMP_temperature;BMP_pressure;BME280_temperature;BME280_humidity;BME280_pressure;Samples;Min_cycle;Max_cycle;Signal;HPM_P1;HPM_P2
2021/09/27 00:00:36;;;;;;;28.92;24.52;;;19.80;74.30;;;;;;5110481;28;20114;-65
2021/09/27 00:03:03;;;;;;;29.90;23.65;;;19.80;74.40;;;;;;5108556;28;21602;-66
2021/09/27 00:05:29;;;;;;;29.48;24.98;;;19.70;74.40;;;;;;5111081;28;20488;-65
2021/09/27 00:07:55;;;;;;;29.60;24.25;;;19.70;74.50;;;;;;5109594;28;20032;-65
2021/09/27 00:10:29;;;;;;;36.13;27.55;;;19.70;74.50;;;;;;5109835;28;20055;-65
2021/09/27 00:12:55;;;;;;;31.50;28.17;;;19.70;74.60;;;;;;5109479;28;20062;-67
2021/09/27 00:15:28;;;;;;;33.63;28.80;;;19.70;74.50;;;;;;5109156;28;20053;-66
2021/09/27 00:17:54;;;;;;;36.30;30.38;;;19.70;74.60;;;;;;5108389;28;20023;-67
2021/09/27 00:20:20;;;;;;;33.88;29.92;;;19.70;74.60;;;;;;5109008;28;20041;-69
2021/09/27 00:22:48;;;;;;;36.88;32.88;;;19.80;74.60;;;;;;5109035;28;20031;-66
2021/09/27 00:25:16;;;;;;;39.70;31.77;;;19.80;74.50;;;;;;5109343;28;20058;-66
2021/09/27 00:27:42;;;;;;;40.20;33.42;;;19.80;74.50;;;;;;5109238;28;20428;-65
2021/09/27 00:30:09;;;;;;;40.80;34.63;;;19.70;74.80;;;;;;5108614;28;20363;-65
2021/09/27 00:32:35;;;;;;;42.88;36.40;;;19.70;75.20;;;;;;5110275;28;20040;-65
2021/09/27 00:35:01;;;;;;;39.97;35.58;;;19.60;75.30;;;;;;5110007;28;20106;-65
2021/09/27 00:37:27;;;;;;;39.22;34.30;;;19.60;75.30;;;;;;5109230;28;20019;-65
2021/09/27 00:39:53;;;;;;;44.97;37.83;;;19.60;75.30;;;;;;5108117;28;20039;-65
2021/09/27 00:42:18;;;;;;;48.85;38.33;;;19.60;75.40;;;;;;5108303;28;20381;-64
2021/09/27 00:44:44;;;;;;;44.13;38.50;;;19.60;75.60;;;;;;5107974;28;20030;-65
2021/09/27 00:47:10;;;;;;;43.05;37.28;;;19.60;75.50;;;;;;5109003;28;20505;-65
2021/09/27 00:49:36;;;;;;;41.47;36.42;;;19.60;75.40;;;;;;5108383;28;20128;-66
2021/09/27 00:52:04;;;;;;;35.88;31.55;;;19.60;75.50;;;;;;5107467;28;20037;-67
2021/09/27 00:54:33;;;;;;;41.53;33.97;;;19.60;75.50;;;;;;5110011;28;20028;-65
2021/09/27 00:57:12;;;;;;;40.25;33.33;;;19.50;75.40;;;;;;5107731;28;20019;-65
2021/09/27 00:59:40;;;;;;;39.15;33.08;;;19.50;75.40;;;;;;5106611;28;20024;-64
2021/09/27 01:02:08;;;;;;;38.22;33.33;;;19.50;75.50;;;;;;5109111;28;20019;-65
2021/09/27 01:04:36;;;;;;;35.55;29.77;;;19.50;75.50;;;;;;5109386;27;20088;-66
2021/09/27 01:07:21;;;;;;;36.80;31.38;;;19.50;75.40;;;;;;5107597;28;20495;-65
2021/09/27 01:09:49;;;;;;;32.45;29.05;;;19.50;75.40;;;;;;5105621;28;20024;-64
2021/09/27 01:12:36;;;;;;;34.55;30.70;;;19.40;75.50;;;;;;5107483;28;20127;-65
2021/09/27 01:15:17;;;;;;;36.83;30.23;;;19.40;75.80;;;;;;5106739;28;20027;-66
2021/09/27 01:17:45;;;;;;;39.95;30.73;;;19.40;75.80;;;;;;5104776;28;20039;-63
2021/09/27 01:20:17;;;;;;;38.85;30.38;;;19.40;75.90;;;;;;5109784;28;20027;-66
2021/09/27 01:23:04;;;;;;;34.80;31.02;;;19.40;75.80;;;;;;5109902;28;20110;-65
2021/09/27 01:25:40;;;;;;;36.88;32.88;;;19.30;76.00;;;;;;5109033;28;20028;-67
2021/09/27 01:28:32;;;;;;;33.70;30.10;;;19.30;75.90;;;;;;5110214;28;20029;-65
2021/09/27 01:31:36;;;;;;;37.42;30.35;;;19.30;76.10;;;;;;5083054;27;20764;-65
2021/09/27 01:34:16;;;;;;;30.30;26.35;;;19.20;76.10;;;;;;5106113;28;20225;-65
2021/09/27 01:36:54;;;;;;;33.03;29.23;;;19.20;76.10;;;;;;5108495;28;20489;-65
2021/09/27 01:39:33;;;;;;;32.50;28.65;;;19.20;76.10;;;;;;5107423;28;20130;-65
2021/09/27 01:42:18;;;;;;;32.63;29.23;;;19.20;76.00;;;;;;5108035;28;20511;-67
2021/09/27 01:45:15;;;;;;;36.15;28.08;;;19.20;75.90;;;;;;5107811;28;20110;-66
2021/09/27 01:47:58;;;;;;;29.80;26.75;;;19.20;76.20;;;;;;5108420;28;20077;-65
2021/09/27 01:50:31;;;;;;;32.58;29.20;;;19.20;76.30;;;;;;5106729;28;20031;-66
2021/09/27 01:53:02;;;;;;;30.30;27.10;;;19.10;76.20;;;;;;5105767;28;20040;-67
2021/09/27 01:55:40;;;;;;;32.17;26.02;;;19.10;76.20;;;;;;5109984;28;20058;-64
2021/09/27 01:58:47;;;;;;;29.63;26.70;;;19.20;76.10;;;;;;5110342;28;20111;-66
2021/09/27 02:01:31;;;;;;;36.60;27.08;;;19.10;76.00;;;;;;5106851;28;20031;-66
2021/09/27 02:04:26;;;;;;;31.35;27.95;;;19.10;76.00;;;;;;5109835;28;20058;-65
2021/09/27 02:06:55;;;;;;;27.80;24.95;;;19.00;76.20;;;;;;5084986;28;20112;-66
2021/09/27 02:09:41;;;;;;;31.05;27.33;;;19.00;76.20;;;;;;5111390;28;20053;-66
2021/09/27 02:12:16;;;;;;;31.40;26.65;;;19.10;76.20;;;;;;5110098;28;20036;-65
2021/09/27 02:15:07;;;;;;;30.98;25.77;;;19.00;76.30;;;;;;5113391;28;20046;-64
2021/09/27 02:17:43;;;;;;;33.33;29.92;;;19.00;76.30;;;;;;5111255;28;20027;-65
2021/09/27 02:20:21;;;;;;;31.55;25.58;;;19.00;76.30;;;;;;5113469;28;20125;-66
2021/09/27 02:23:07;;;;;;;30.88;27.67;;;19.00;77.00;;;;;;5110393;28;20031;-65
2021/09/27 02:25:36;;;;;;;29.42;26.23;;;19.10;76.40;;;;;;5113236;28;20031;-65
2021/09/27 02:28:07;;;;;;;31.73;28.27;;;19.10;76.30;;;;;;5111803;28;20023;-65
2021/09/27 02:30:55;;;;;;;33.40;29.38;;;19.10;76.90;;;;;;5112727;28;20016;-65
2021/09/27 02:33:26;;;;;;;32.03;28.70;;;19.20;76.30;;;;;;5112892;28;20062;-66
2021/09/27 02:36:04;;;;;;;30.92;27.00;;;19.20;76.30;;;;;;5111204;28;20106;-66
2021/09/27 02:38:46;;;;;;;33.22;27.10;;;19.20;76.20;;;;;;5093384;28;20420;-66
2021/09/27 02:41:24;;;;;;;33.65;27.83;;;19.20;76.10;;;;;;5109155;28;20101;-67
2021/09/27 02:43:50;;;;;;;41.97;29.85;;;19.30;75.90;;;;;;5112051;28;20039;-67
2021/09/27 02:46:15;;;;;;;30.60;27.33;;;19.30;75.80;;;;;;5112978;28;20028;-65
2021/09/27 02:48:53;;;;;;;32.80;27.63;;;19.30;75.80;;;;;;5101188;28;20718;-66
2021/09/27 02:51:19;;;;;;;30.52;27.08;;;19.30;75.70;;;;;;5113033;28;20115;-65
2021/09/27 02:53:45;;;;;;;30.05;26.27;;;19.40;75.60;;;;;;5112644;28;20036;-64
2021/09/27 02:56:14;;;;;;;33.42;26.45;;;19.40;75.40;;;;;;5111441;28;20077;-66
2021/09/27 02:58:44;;;;;;;38.22;29.02;;;19.40;75.30;;;;;;5114317;28;20031;-65
2021/09/27 03:01:29;;;;;;;30.50;27.33;;;19.40;75.20;;;;;;5113605;28;20020;-67
2021/09/27 03:04:36;;;;;;;29.83;26.63;;;19.40;75.20;;;;;;5100445;28;20024;-68
2021/09/27 03:07:26;;;;;;;30.10;26.23;;;19.40;75.20;;;;;;5111469;28;20038;-66
2021/09/27 03:10:10;;;;;;;29.85;26.63;;;19.30;75.40;;;;;;5112587;28;20062;-67
2021/09/27 03:12:45;;;;;;;30.70;26.13;;;19.30;75.40;;;;;;5112000;28;20524;-66
2021/09/27 03:15:29;;;;;;;29.85;24.98;;;19.30;75.30;;;;;;5111604;28;20024;-66
2021/09/27 03:17:54;;;;;;;;;;;19.40;75.30;;;;;;5111347;28;20024;-66
2021/09/27 03:20:41;;;;;;;28.88;25.80;;;19.40;75.10;;;;;;5110232;28;19961;-66
2021/09/27 03:23:29;;;;;;;28.80;23.77;;;19.50;74.90;;;;;;5105493;28;20023;-67
2021/09/27 03:26:11;;;;;;;26.58;23.88;;;19.50;74.70;;;;;;5111239;28;20036;-67
2021/09/27 03:29:12;;;;;;;31.25;26.45;;;19.60;74.50;;;;;;5112811;28;20028;-65
2021/09/27 03:32:04;;;;;;;24.63;22.08;;;19.60;74.30;;;;;;5112182;28;20038;-65
2021/09/27 03:34:48;;;;;;;29.08;22.92;;;19.60;74.20;;;;;;5112569;28;20031;-67
2021/09/27 03:37:26;;;;;;;23.58;21.15;;;19.60;74.10;;;;;;5109804;28;20031;-65
2021/09/27 03:40:07;;;;;;;25.85;23.17;;;19.60;74.00;;;;;;5111010;28;20096;-66
2021/09/27 03:43:03;;;;;;;26.25;21.60;;;19.60;73.80;;;;;;5112534;28;20031;-66
2021/09/27 03:46:20;;;;;;;25.45;22.63;;;19.70;73.70;;;;;;5113331;28;20019;-66
2021/09/27 03:49:05;;;;;;;25.17;21.08;;;19.70;73.60;;;;;;5028605;28;20115;-65
2021/09/27 03:51:41;;;;;;;22.88;20.00;;;19.70;73.20;;;;;;5106165;28;20027;-65
2021/09/27 03:54:21;;;;;;;21.70;19.30;;;19.70;72.40;;;;;;5105710;28;20035;-66
2021/09/27 03:56:55;;;;;;;21.73;19.42;;;19.70;72.00;;;;;;5109914;28;20034;-65
2021/09/27 03:59:35;;;;;;;;;;;19.60;71.80;;;;;;5111786;28;20027;-66
2021/09/27 04:02:12;;;;;;;27.02;21.33;;;19.60;71.80;;;;;;5108930;28;20128;-66
2021/09/27 04:05:00;;;;;;;24.42;21.38;;;19.60;71.80;;;;;;5111967;28;20080;-65
2021/09/27 04:07:37;;;;;;;29.95;25.38;;;19.60;72.30;;;;;;5111769;28;20039;-65
2021/09/27 04:10:14;;;;;;;31.00;26.38;;;19.60;72.20;;;;;;5110430;28;20055;-65
2021/09/27 04:12:49;;;;;;;36.33;28.33;;;19.70;72.50;;;;;;5092521;28;20386;-65
2021/09/27 04:16:07;;;;;;;32.83;27.92;;;19.70;72.90;;;;;;5111397;28;20042;-66
2021/09/27 04:18:36;;;;;;;33.42;29.83;;;19.70;73.20;;;;;;5079375;28;20043;-66
2021/09/27 04:21:05;;;;;;;36.17;29.98;;;19.70;73.10;;;;;;5095765;28;20036;-67
2021/09/27 04:24:12;;;;;;;35.55;31.45;;;19.80;73.20;;;;;;5112212;28;20051;-67
2021/09/27 04:26:38;;;;;;;39.50;33.05;;;19.80;73.40;;;;;;5113900;27;20030;-68
2021/09/27 04:29:35;;;;;;;36.05;32.28;;;19.80;73.20;;;;;;5097976;28;20032;-66
2021/09/27 04:32:20;;;;;;;38.70;34.65;;;19.80;73.40;;;;;;5102878;28;20115;-66
2021/09/27 04:34:56;;;;;;;39.58;33.40;;;19.80;73.40;;;;;;5097747;28;20059;-64
2021/09/27 04:37:24;;;;;;;41.47;34.20;;;19.80;73.40;;;;;;5111334;28;20050;-68
2021/09/27 04:39:50;;;;;;;35.17;29.48;;;19.80;73.40;;;;;;5109790;28;20031;-67
2021/09/27 04:42:16;;;;;;;34.88;31.15;;;19.80;73.30;;;;;;5110101;28;20118;-67
2021/09/27 04:44:51;;;;;;;34.22;30.67;;;19.90;73.20;;;;;;5111447;28;20106;-64
2021/09/27 04:47:46;;;;;;;32.35;28.92;;;19.90;72.90;;;;;;5109176;28;20533;-67
2021/09/27 04:50:15;;;;;;;31.10;27.50;;;20.00;72.90;;;;;;5107911;28;22334;-69
2021/09/27 04:53:10;;;;;;;30.70;27.23;;;20.00;72.70;;;;;;5110319;28;20104;-66
2021/09/27 04:55:45;;;;;;;30.40;27.10;;;19.90;72.60;;;;;;5108955;28;20131;-68
2021/09/27 04:58:14;;;;;;;33.83;28.45;;;19.90;72.60;;;;;;5109203;28;20038;-67
2021/09/27 05:00:57;;;;;;;30.30;27.13;;;20.00;72.70;;;;;;5110723;28;20050;-64
2021/09/27 05:03:51;;;;;;;31.98;28.63;;;20.00;72.60;;;;;;5109130;28;20048;-65
2021/09/27 05:06:26;;;;;;;30.00;26.55;;;20.00;72.80;;;;;;5099650;28;20032;-68
2021/09/27 05:09:03;;;;;;;33.00;29.50;;;20.00;72.40;;;;;;5108282;28;20028;-64
2021/09/27 05:11:29;;;;;;;30.67;26.80;;;20.00;72.30;;;;;;5110389;28;20036;-67
2021/09/27 05:14:13;;;;;;;31.20;27.90;;;20.10;72.30;;;;;;5108867;28;20031;-66
2021/09/27 05:17:06;;;;;;;31.77;28.48;;;20.10;72.30;;;;;;5104548;28;20135;-67
2021/09/27 05:20:05;;;;;;;32.47;27.70;;;20.10;72.20;;;;;;5090158;28;20039;-68
2021/09/27 05:22:47;;;;;;;33.25;29.58;;;20.10;72.30;;;;;;5090214;28;20116;-68
2021/09/27 05:25:45;;;;;;;31.38;28.20;;;20.10;72.30;;;;;;5089155;28;20028;-69
2021/09/27 05:28:31;;;;;;;33.10;29.65;;;20.20;72.30;;;;;;5088351;28;20030;-68
2021/09/27 05:31:34;;;;;;;33.78;30.23;;;20.20;72.20;;;;;;5094452;28;20027;-67
2021/09/27 05:34:12;;;;;;;32.80;29.20;;;20.20;72.20;;;;;;5093684;28;20019;-69
2021/09/27 05:37:10;;;;;;;38.17;30.83;;;20.20;72.20;;;;;;5089766;28;20028;-67
2021/09/27 05:39:53;;;;;;;32.38;28.67;;;20.20;72.40;;;;;;5082324;28;20036;-67
2021/09/27 05:42:38;;;;;;;;;;;20.30;72.30;;;;;;5092979;28;20035;-67
2021/09/27 05:45:24;;;;;;;34.40;30.42;;;20.30;72.30;;;;;;5092627;28;20010;-65
2021/09/27 05:48:25;;;;;;;36.92;28.25;;;20.30;72.40;;;;;;5107341;28;20038;-66
2021/09/27 05:51:25;;;;;;;32.33;28.75;;;20.30;72.30;;;;;;5104219;28;20107;-67
2021/09/27 05:54:09;;;;;;;32.60;28.90;;;20.30;72.10;;;;;;5087626;28;20438;-67
2021/09/27 05:57:13;;;;;;;33.30;28.88;;;20.40;72.10;;;;;;5090156;28;20097;-66
2021/09/27 06:00:02;;;;;;;34.97;27.00;;;20.40;72.10;;;;;;5088778;28;20086;-66
2021/09/27 06:02:46;;;;;;;31.65;25.52;;;20.50;72.30;;;;;;5083742;28;20090;-67
2021/09/27 06:05:17;;;;;;;27.00;23.98;;;20.60;72.10;;;;;;5088374;28;20032;-67
2021/09/27 06:07:46;;;;;;;26.42;23.60;;;20.50;72.20;;;;;;5089201;28;20040;-66
2021/09/27 06:11:01;;;;;;;24.70;21.52;;;20.60;72.20;;;;;;5089376;28;20036;-66
2021/09/27 06:13:31;;;;;;;28.30;21.75;;;20.60;72.30;;;;;;5087712;28;20052;-66
2021/09/27 06:16:05;;;;;;;22.25;18.98;;;20.50;72.30;;;;;;5088517;28;20059;-65
2021/09/27 06:18:43;;;;;;;26.83;18.60;;;20.50;72.30;;;;;;5083969;28;20024;-65
2021/09/27 06:21:46;;;;;;;21.38;18.25;;;20.60;72.50;;;;;;5089102;28;20031;-67
2021/09/27 06:24:34;;;;;;;15.57;13.95;;;20.70;72.50;;;;;;5101862;28;20047;-66
2021/09/27 06:27:01;;;;;;;14.90;13.32;;;20.70;72.20;;;;;;5105865;28;20393;-64
2021/09/27 06:29:36;;;;;;;16.00;13.70;;;20.70;71.50;;;;;;5107438;28;20077;-64
2021/09/27 06:32:09;;;;;;;24.10;13.77;;;20.60;72.10;;;;;;5107434;28;20032;-65
2021/09/27 06:35:00;;;;;;;17.52;13.65;;;20.60;72.20;;;;;;5089676;28;20016;-66
2021/09/27 06:37:29;;;;;;;15.90;13.82;;;20.70;72.40;;;;;;5108514;28;20020;-65
2021/09/27 06:39:56;;;;;;;14.32;12.18;;;20.70;72.10;;;;;;5105771;28;20482;-65
2021/09/27 06:42:21;;;;;;;15.75;13.70;;;20.70;72.10;;;;;;5108059;28;20118;-64
2021/09/27 06:44:53;;;;;;;16.17;12.43;;;20.80;72.10;;;;;;5104865;28;20122;-66
2021/09/27 06:47:19;;;;;;;14.13;11.02;;;20.80;71.90;;;;;;5108399;28;20391;-65
2021/09/27 06:49:44;;;;;;;17.15;10.85;;;20.80;71.80;;;;;;5107821;28;20050;-65
2021/09/27 06:52:10;;;;;;;10.13;8.90;;;20.80;71.80;;;;;;5112075;28;20105;-65
2021/09/27 06:54:36;;;;;;;12.15;9.00;;;20.70;71.70;;;;;;5112980;28;20355;-65
2021/09/27 06:57:03;;;;;;;10.05;7.60;;;20.70;71.70;;;;;;5112095;28;20032;-65
2021/09/27 06:59:28;;;;;;;8.82;7.13;;;20.70;71.70;;;;;;5098758;27;20028;-64
2021/09/27 07:01:54;;;;;;;12.02;7.10;;;20.80;71.60;;;;;;5115409;27;20103;-64
2021/09/27 07:04:20;;;;;;;7.22;5.88;;;20.80;71.10;;;;;;5121490;27;20130;-67
2021/09/27 07:06:46;;;;;;;9.27;6.40;;;20.80;70.90;;;;;;5129687;27;20027;-64
2021/09/27 07:09:13;;;;;;;9.02;6.05;;;20.80;70.90;;;;;;5116846;27;20023;-62
2021/09/27 07:11:40;;;;;;;8.35;4.85;;;20.80;70.90;;;;;;5127887;27;20043;-65
2021/09/27 07:14:07;;;;;;;6.07;4.40;;;20.80;70.60;;;;;;5110585;27;20030;-63
2021/09/27 07:16:33;;;;;;;8.40;4.53;;;20.80;70.60;;;;;;5107999;27;20039;-65
2021/09/27 07:18:59;;;;;;;7.55;4.57;;;20.80;70.30;;;;;;5118380;27;20050;-62
2021/09/27 07:21:25;;;;;;;9.85;4.60;;;20.90;70.20;;;;;;5113955;27;20085;-62
2021/09/27 07:23:51;;;;;;;9.77;5.03;;;20.90;70.10;;;;;;5121392;27;20035;-64
2021/09/27 07:26:18;;;;;;;7.95;4.35;;;21.00;69.90;;;;;;5117889;27;20093;-64
2021/09/27 07:28:45;;;;;;;5.82;3.90;;;20.90;69.70;;;;;;5112858;27;20500;-64
2021/09/27 07:31:11;;;;;;;6.60;3.67;;;20.90;69.60;;;;;;5106818;27;20027;-65
2021/09/27 07:33:37;;;;;;;6.50;2.90;;;20.90;69.50;;;;;;5119257;27;20051;-63
2021/09/27 07:36:23;;;;;;;6.97;3.25;;;20.80;69.30;;;;;;5105581;27;20072;-63
2021/09/27 07:38:49;;;;;;;4.03;3.05;;;20.90;69.60;;;;;;5119830;27;20110;-63
2021/09/27 07:41:15;;;;;;;5.50;3.10;;;20.90;69.40;;;;;;5110688;27;20454;-64
2021/09/27 07:43:41;;;;;;;4.70;2.90;;;20.90;69.40;;;;;;5112169;27;20078;-63
2021/09/27 07:46:07;;;;;;;3.78;2.70;;;21.00;69.00;;;;;;5127280;27;20417;-64
2021/09/27 07:48:33;;;;;;;4.07;2.45;;;20.90;68.70;;;;;;5104353;28;20106;-63
2021/09/27 07:51:00;;;;;;;9.02;2.55;;;21.00;68.70;;;;;;5100945;28;20043;-64
2021/09/27 07:53:26;;;;;;;6.10;4.22;;;20.90;68.50;;;;;;5113793;27;20031;-63
2021/09/27 07:55:52;;;;;;;8.52;3.10;;;20.90;68.50;;;;;;5112247;27;20108;-62
2021/09/27 07:58:19;;;;;;;6.85;2.30;;;20.90;68.50;;;;;;5110371;27;20030;-63
2021/09/27 08:00:49;;;;;;;3.05;2.20;;;21.00;68.30;;;;;;5119323;27;20432;-63
2021/09/27 08:03:16;;;;;;;4.45;2.30;;;21.00;68.00;;;;;;5111032;27;20148;-63
2021/09/27 08:05:42;;;;;;;5.18;2.47;;;21.00;68.10;;;;;;5106572;27;20035;-63
2021/09/27 08:08:09;;;;;;;14.25;2.70;;;21.00;68.10;;;;;;5117145;27;20027;-62
2021/09/27 08:10:37;;;;;;;3.85;2.00;;;21.10;68.00;;;;;;5113946;27;20062;-65
2021/09/27 08:13:03;;;;;;;4.65;2.45;;;21.00;68.00;;;;;;5122834;27;20058;-63
2021/09/27 08:15:36;;;;;;;4.72;2.03;;;21.10;67.90;;;;;;5120168;27;20062;-67
2021/09/27 08:18:08;;;;;;;2.65;2.15;;;21.00;67.80;;;;;;5107404;28;20034;-65
2021/09/27 08:20:39;;;;;;;4.75;2.10;;;20.90;68.00;;;;;;5103461;28;20020;-65
2021/09/27 08:23:12;;;;;;;5.15;2.40;;;20.90;68.30;;;;;;5109617;28;20131;-66
2021/09/27 08:25:39;;;;;;;4.43;2.30;;;20.70;68.70;;;;;;5107674;28;20045;-67
2021/09/27 08:28:07;;;;;;;5.35;2.38;;;20.60;69.00;;;;;;5109176;28;20027;-65
2021/09/27 08:30:40;;;;;;;6.55;2.50;;;20.70;69.20;;;;;;5108676;28;20019;-67
2021/09/27 08:33:06;;;;;;;5.38;2.50;;;20.70;69.20;;;;;;5110097;28;20040;-66
2021/09/27 08:35:33;;;;;;;8.25;2.63;;;20.70;69.20;;;;;;5109082;28;20027;-67
2021/09/27 08:38:01;;;;;;;8.20;2.80;;;20.70;69.10;;;;;;5107185;28;20024;-65
2021/09/27 08:40:55;;;;;;;4.65;2.50;;;20.80;69.00;;;;;;5109313;28;20122;-66
2021/09/27 08:43:36;;;;;;;6.93;2.72;;;20.80;68.90;;;;;;5108710;28;20058;-67
2021/09/27 08:46:33;;;;;;;3.03;2.53;;;20.80;69.40;;;;;;5109057;28;20080;-67
2021/09/27 08:49:32;;;;;;;4.78;2.50;;;20.90;69.80;;;;;;5108188;28;20019;-67
2021/09/27 08:51:58;;;;;;;4.63;2.35;;;20.90;70.00;;;;;;5108687;28;20059;-66
2021/09/27 08:54:28;;;;;;;8.75;3.35;;;20.90;70.10;;;;;;5108240;28;20055;-67
2021/09/27 08:57:09;;;;;;;6.07;3.08;;;21.00;70.20;;;;;;5105661;28;20039;-65
2021/09/27 09:00:16;;;;;;;4.32;2.78;;;21.10;70.10;;;;;;5109895;28;20035;-67
2021/09/27 09:03:18;;;;;;;5.03;2.90;;;21.10;69.60;;;;;;5101118;28;20039;-66
2021/09/27 09:06:06;;;;;;;3.90;3.10;;;21.10;69.70;;;;;;5106741;28;20473;-66
2021/09/27 09:08:47;;;;;;;14.88;3.30;;;21.00;69.80;;;;;;5108371;28;20098;-68
2021/09/27 09:11:22;;;;;;;17.70;3.15;;;20.90;70.20;;;;;;5107132;28;20521;-65
2021/09/27 09:14:11;;;;;;;31.17;4.40;;;20.90;70.40;;;;;;5108049;28;20019;-66
2021/09/27 09:16:40;;;;;;;20.60;4.57;;;20.90;70.70;;;;;;5108870;27;20042;-68
2021/09/27 09:19:10;;;;;;;17.35;4.00;;;20.90;70.60;;;;;;5108359;28;20031;-65
2021/09/27 09:21:40;;;;;;;19.50;4.03;;;21.10;70.60;;;;;;5108803;28;20031;-69
2021/09/27 09:24:12;;;;;;;15.32;4.13;;;21.10;70.00;;;;;;5110107;28;20091;-66
2021/09/27 09:26:44;;;;;;;11.43;3.80;;;21.00;70.00;;;;;;5109502;28;20034;-66
2021/09/27 09:29:11;;;;;;;12.90;4.47;;;21.00;69.80;;;;;;5108536;28;20020;-66
2021/09/27 09:31:44;;;;;;;8.77;4.07;;;21.00;70.10;;;;;;5100162;28;20466;-68
2021/09/27 09:34:19;;;;;;;9.27;4.10;;;21.00;70.50;;;;;;5100987;28;20054;-69
2021/09/27 09:36:54;;;;;;;13.55;4.20;;;20.90;70.60;;;;;;5110259;28;20038;-66
2021/09/27 09:39:26;;;;;;;12.35;4.25;;;20.90;70.70;;;;;;5105748;28;20123;-68
2021/09/27 09:42:06;;;;;;;6.78;4.43;;;20.80;70.70;;;;;;5109572;28;20047;-67
2021/09/27 09:44:33;;;;;;;9.77;5.00;;;20.80;70.90;;;;;;5108959;28;20516;-67
2021/09/27 09:47:26;;;;;;;17.67;4.65;;;20.80;71.00;;;;;;5110359;28;20048;-67
2021/09/27 09:50:22;;;;;;;16.52;4.50;;;20.80;71.10;;;;;;5106138;28;20120;-67
2021/09/27 09:52:53;;;;;;;7.00;4.53;;;20.70;71.30;;;;;;5109394;28;20442;-68
2021/09/27 09:55:28;;;;;;;7.70;5.32;;;20.80;71.00;;;;;;5108421;28;20035;-69
2021/09/27 09:58:02;;;;;;;6.13;4.55;;;20.70;71.10;;;;;;5108494;28;20165;-69
2021/09/27 10:00:51;;;;;;;5.80;5.18;;;20.70;71.50;;;;;;5109059;28;20103;-70
2021/09/27 10:03:42;;;;;;;8.40;5.18;;;20.70;71.30;;;;;;5094055;28;20040;-70
2021/09/27 10:06:41;;;;;;;9.50;6.00;;;20.70;71.70;;;;;;5108215;28;20024;-67
2021/09/27 10:09:15;;;;;;;7.25;5.32;;;20.70;71.40;;;;;;5088360;28;20031;-70
2021/09/27 10:11:49;;;;;;;9.15;6.13;;;20.70;71.20;;;;;;5106561;28;20035;-66
2021/09/27 10:14:29;;;;;;;6.28;5.43;;;20.70;71.40;;;;;;5109633;28;20080;-65
2021/09/27 10:17:09;;;;;;;7.68;6.43;;;20.60;71.50;;;;;;5106988;28;20127;-68
2021/09/27 10:19:57;;;;;;;11.93;6.70;;;20.60;71.70;;;;;;5106133;28;20027;-68
2021/09/27 10:22:27;;;;;;;9.27;6.10;;;20.70;71.90;;;;;;5108849;28;20040;-66
2021/09/27 10:24:59;;;;;;;8.77;5.88;;;20.80;72.10;;;;;;5108141;28;20036;-69
2021/09/27 10:27:35;;;;;;;6.97;5.55;;;20.80;72.10;;;;;;5112891;28;20031;-68
2021/09/27 10:30:07;;;;;;;10.02;7.10;;;20.90;71.70;;;;;;5110215;28;20407;-67
2021/09/27 10:32:33;;;;;;;8.60;6.63;;;20.90;71.90;;;;;;5110997;28;20031;-69
2021/09/27 10:35:04;;;;;;;12.18;6.40;;;21.00;71.80;;;;;;5111385;28;20080;-70
2021/09/27 10:37:31;;;;;;;8.63;6.82;;;21.00;71.60;;;;;;5093539;28;20028;-66
2021/09/27 10:39:58;;;;;;;9.73;6.72;;;21.00;71.50;;;;;;5110148;27;20070;-68
2021/09/27 10:42:39;;;;;;;6.90;6.20;;;21.00;71.60;;;;;;5112599;27;20040;-70
2021/09/27 10:45:08;;;;;;;8.30;6.95;;;21.00;71.60;;;;;;5110804;28;20020;-69
2021/09/27 10:47:40;;;;;;;7.00;6.30;;;20.90;71.50;;;;;;5112439;27;20054;-69
2021/09/27 10:50:12;;;;;;;7.80;6.93;;;20.90;71.80;;;;;;5108978;28;20035;-69
2021/09/27 10:52:50;;;;;;;9.35;6.45;;;20.90;71.90;;;;;;5116887;27;20311;-67
2021/09/27 10:55:25;;;;;;;9.40;6.82;;;20.90;71.70;;;;;;5112055;28;20038;-69
2021/09/27 10:57:56;;;;;;;8.43;6.50;;;20.90;71.60;;;;;;5112033;28;20024;-70
2021/09/27 11:00:34;;;;;;;8.55;6.40;;;20.90;71.90;;;;;;5112510;28;20020;-69
2021/09/27 11:03:06;;;;;;;11.35;6.78;;;20.90;71.80;;;;;;5110236;28;20110;-68
2021/09/27 11:05:47;;;;;;;7.75;6.35;;;20.90;71.60;;;;;;5112468;27;20016;-68
2021/09/27 11:08:16;;;;;;;7.80;6.68;;;20.90;71.80;;;;;;5111713;28;20130;-67
2021/09/27 11:10:49;;;;;;;8.75;6.30;;;20.90;71.80;;;;;;5108762;28;20378;-68
2021/09/27 11:13:34;;;;;;;9.18;5.85;;;20.90;71.80;;;;;;5110764;28;20035;-70
2021/09/27 11:16:07;;;;;;;11.88;6.88;;;20.90;72.40;;;;;;5108577;28;20039;-69
2021/09/27 11:18:33;;;;;;;9.32;6.43;;;20.90;71.70;;;;;;5112122;28;20422;-70
2021/09/27 11:21:17;;;;;;;10.63;7.40;;;20.90;71.50;;;;;;5111307;28;20023;-69
2021/09/27 11:23:44;;;;;;;7.65;6.60;;;20.90;71.60;;;;;;5109355;28;20102;-68
2021/09/27 11:26:19;;;;;;;7.25;5.85;;;20.90;71.80;;;;;;5111779;28;20389;-70
2021/09/27 11:28:50;;;;;;;8.93;6.95;;;20.80;71.80;;;;;;5107982;28;20462;-69
2021/09/27 11:31:22;;;;;;;7.28;5.65;;;20.70;71.60;;;;;;5111693;28;20043;-69
2021/09/27 11:33:59;;;;;;;8.00;6.25;;;20.80;72.10;;;;;;5110949;28;20056;-70
2021/09/27 11:36:33;;;;;;;11.45;6.60;;;20.80;72.00;;;;;;5110046;28;20015;-69
2021/09/27 11:42:25;;;;;;;7.53;5.63;;;20.80;72.30;;;;;;5109446;28;20449;-71
2021/09/27 11:45:14;;;;;;;8.75;5.97;;;20.80;72.10;;;;;;5110423;28;20034;-67
2021/09/27 11:47:43;;;;;;;11.93;7.00;;;20.80;72.20;;;;;;5110914;28;20368;-68
2021/09/27 11:50:28;;;;;;;10.25;5.75;;;20.80;72.30;;;;;;5111908;28;20019;-68
2021/09/27 11:52:54;;;;;;;9.30;6.25;;;20.90;72.00;;;;;;5107331;28;20027;-67
2021/09/27 11:55:36;;;;;;;7.28;5.35;;;21.00;71.30;;;;;;5112728;28;20026;-68
2021/09/27 11:58:08;;;;;;;8.50;5.70;;;21.00;71.40;;;;;;5108890;28;20023;-66
2021/09/27 12:00:44;;;;;;;8.57;5.45;;;21.00;71.20;;;;;;5110475;28;20358;-69
2021/09/27 12:03:17;;;;;;;8.73;5.55;;;21.00;71.00;;;;;;5112107;28;20083;-68
2021/09/27 12:06:01;;;;;;;8.05;5.00;;;21.00;71.30;;;;;;5112387;28;20107;-67
2021/09/27 12:08:28;;;;;;;8.32;6.88;;;21.00;71.10;;;;;;5111494;28;20027;-68
2021/09/27 12:11:15;;;;;;;6.28;5.00;;;21.10;71.20;;;;;;5108466;28;20027;-68
2021/09/27 12:13:46;;;;;;;6.75;5.43;;;21.20;70.80;;;;;;5108837;28;20545;-67
2021/09/27 12:16:25;;;;;;;6.85;5.38;;;21.20;70.60;;;;;;5110497;28;20027;-68
2021/09/27 12:19:02;;;;;;;7.93;5.28;;;21.30;70.70;;;;;;5109604;28;20023;-67
2021/09/27 12:21:37;;;;;;;8.10;6.60;;;21.40;70.30;;;;;;5111802;28;20115;-67
2021/09/27 12:24:12;;;;;;;8.50;5.35;;;21.50;70.40;;;;;;5109502;28;20168;-70
2021/09/27 12:26:50;;;;;;;7.90;6.55;;;21.60;70.00;;;;;;5109153;28;20074;-67
2021/09/27 12:29:22;;;;;;;7.15;5.50;;;21.60;69.00;;;;;;5110163;28;20023;-68
2021/09/27 12:31:50;;;;;;;6.00;5.32;;;21.50;68.90;;;;;;5110362;28;20149;-67
2021/09/27 12:34:23;;;;;;;8.88;5.20;;;21.50;68.90;;;;;;5108890;28;20400;-68
2021/09/27 12:36:50;;;;;;;7.95;5.70;;;21.60;69.10;;;;;;5109330;28;20038;-67
2021/09/27 12:39:21;;;;;;;7.85;6.70;;;21.70;69.00;;;;;;5111310;28;20054;-68
2021/09/27 12:41:49;;;;;;;8.80;5.43;;;21.80;68.90;;;;;;5107710;28;20043;-68
2021/09/27 12:44:20;;;;;;;8.25;6.18;;;21.90;68.50;;;;;;5118244;27;20035;-68
2021/09/27 12:46:48;;;;;;;8.93;5.53;;;22.00;68.40;;;;;;5111375;28;20024;-67
2021/09/27 12:49:18;;;;;;;8.55;5.70;;;22.00;67.80;;;;;;5110842;28;20031;-70
2021/09/27 12:51:50;;;;;;;10.77;6.95;;;22.00;67.60;;;;;;5108697;28;20031;-67
2021/09/27 12:54:27;;;;;;;6.70;5.45;;;22.00;67.90;;;;;;5111032;28;20039;-68
2021/09/27 12:56:56;;;;;;;6.45;4.97;;;22.10;67.10;;;;;;5109862;28;20102;-70
2021/09/27 12:59:28;;;;;;;6.72;5.40;;;22.00;67.10;;;;;;5112171;27;20118;-69
2021/09/27 13:01:59;;;;;;;7.53;5.13;;;22.00;67.30;;;;;;5108134;28;20042;-69
2021/09/27 13:04:43;;;;;;;6.97;4.95;;;22.00;67.30;;;;;;5107072;27;20031;-67
2021/09/27 13:07:13;;;;;;;6.03;5.20;;;22.10;67.60;;;;;;5110283;28;20152;-68
2021/09/27 13:10:17;;;;;;;12.48;6.18;;;22.20;67.30;;;;;;5112342;28;20024;-68
2021/09/27 13:12:59;;;;;;;6.28;5.30;;;22.30;67.10;;;;;;5047755;28;20195;-67
2021/09/27 13:15:30;;;;;;;10.23;4.97;;;22.40;66.30;;;;;;5088142;28;20052;-69
2021/09/27 13:18:12;;;;;;;7.40;6.05;;;22.40;66.50;;;;;;5091281;28;20024;-69
2021/09/27 13:20:46;;;;;;;6.50;5.65;;;22.40;66.40;;;;;;5106183;27;20051;-67
2021/09/27 13:23:15;;;;;;;6.72;5.43;;;22.40;66.40;;;;;;5112142;27;20346;-69
2021/09/27 13:25:46;;;;;;;8.02;4.95;;;22.40;66.10;;;;;;5111419;28;20031;-69